Time;durP1;ratioP1;P1;durP2;ratioP2;P2;SDS_P1;SDS_P2;PMS_P1;PMS_P2;Temp;Humidity;BMP_temperature;BMP_pressure;BME280_temperature;BME280_humidity;BME280_pressure;Samples;Min_cycle;Max_cycle;Signal;HPM_P1;HPM_P2
2022/10/07 00:01:57;;;;;;;2.27;0.53;;;11.60;99.90;;;;;;6195355;23;20020;-88
2022/10/07 00:04:23;;;;;;;4.10;0.70;;;11.60;99.90;;;;;;6195258;23;20017;-94
2022/10/07 00:06:49;;;;;;;2.93;0.50;;;11.60;99.90;;;;;;6195493;23;20074;-94
2022/10/07 00:09:14;;;;;;;4.37;0.70;;;11.50;99.90;;;;;;6195529;23;20754;-95
2022/10/07 00:11:40;;;;;;;2.23;0.67;;;11.60;99.90;;;;;;6146175;23;20326;-89
2022/10/07 00:14:06;;;;;;;2.38;0.70;;;11.50;99.90;;;;;;6220501;23;20022;-89
2022/10/07 00:16:38;;;;;;;4.18;0.60;;;11.50;99.90;;;;;;6195271;23;20020;-88
2022/10/07 00:19:10;;;;;;;2.85;0.77;;;11.50;99.90;;;;;;6195593;23;20020;-92
2022/10/07 00:21:37;;;;;;;3.95;0.52;;;11.50;99.90;;;;;;6195577;23;20019;-92
2022/10/07 00:24:03;;;;;;;;;;;11.40;99.90;;;;;;6195554;23;20051;-89
2022/10/07 00:26:31;;;;;;;2.35;0.40;;;11.50;99.90;;;;;;6195135;23;19919;-90
2022/10/07 00:28:57;;;;;;;1.40;0.40;;;11.40;99.90;;;;;;6195031;23;20016;-89
2022/10/07 00:31:26;;;;;;;1.90;0.57;;;11.40;99.90;;;;;;6194970;23;20377;-91
2022/10/07 00:33:53;;;;;;;2.60;0.50;;;11.40;99.90;;;;;;6220344;23;20008;-88
2022/10/07 00:36:25;;;;;;;4.07;0.85;;;11.40;99.90;;;;;;6220307;23;20020;-94
2022/10/07 00:38:56;;;;;;;4.43;0.70;;;11.40;99.90;;;;;;6195468;23;20031;-93
2022/10/07 00:41:31;;;;;;;3.67;0.70;;;11.40;99.90;;;;;;6195156;23;20024;-93
2022/10/07 00:43:58;;;;;;;3.70;0.60;;;11.40;99.90;;;;;;6194794;23;20016;-89
2022/10/07 00:46:34;;;;;;;3.13;0.55;;;11.40;99.90;;;;;;6195738;23;20020;-93
2022/10/07 00:49:05;;;;;;;3.15;0.80;;;11.40;99.90;;;;;;6205998;23;20016;-87
2022/10/07 00:51:33;;;;;;;2.70;0.40;;;11.40;99.90;;;;;;6197115;23;20016;-89
2022/10/07 00:54:01;;;;;;;2.30;0.40;;;11.40;99.90;;;;;;6194978;23;20336;-89
2022/10/07 00:56:28;;;;;;;2.60;0.50;;;11.40;99.90;;;;;;6195527;23;20122;-89
2022/10/07 00:58:54;;;;;;;3.63;0.55;;;11.40;99.90;;;;;;6220403;23;20016;-92
2022/10/07 01:01:20;;;;;;;3.33;0.73;;;11.40;99.90;;;;;;6195011;23;20024;-90
2022/10/07 01:03:47;;;;;;;2.95;0.70;;;11.40;99.90;;;;;;6195150;23;20023;-92
2022/10/07 01:06:13;;;;;;;3.20;0.50;;;11.40;99.90;;;;;;6195286;23;20055;-93
2022/10/07 01:08:41;;;;;;;2.40;0.70;;;11.30;99.90;;;;;;6195332;23;20016;-88
2022/10/07 01:11:22;;;;;;;2.05;0.60;;;11.40;99.90;;;;;;6195148;23;20052;-90
2022/10/07 01:14:12;;;;;;;5.55;1.00;;;11.30;99.90;;;;;;6195235;23;20012;-90
2022/10/07 01:16:54;;;;;;;3.72;0.80;;;11.30;99.90;;;;;;6194860;23;20019;-89
2022/10/07 01:19:57;;;;;;;4.93;0.70;;;11.30;99.90;;;;;;6194876;23;20028;-91
2022/10/07 01:22:53;;;;;;;2.17;0.50;;;11.30;99.90;;;;;;6195799;23;20483;-91
2022/10/07 01:25:45;;;;;;;4.20;0.93;;;11.30;99.90;;;;;;6241687;22;20014;-90
2022/10/07 01:28:28;;;;;;;2.03;0.50;;;11.30;99.90;;;;;;6211126;23;20024;-90
2022/10/07 01:30:58;;;;;;;2.03;0.60;;;11.30;99.90;;;;;;6194926;23;20012;-89
2022/10/07 01:33:27;;;;;;;1.85;0.70;;;11.30;99.90;;;;;;6194772;23;20100;-90
2022/10/07 01:35:57;;;;;;;1.70;0.52;;;11.30;99.90;;;;;;6194483;23;20020;-88
2022/10/07 01:38:25;;;;;;;2.80;0.80;;;11.30;99.90;;;;;;6246399;23;20095;-91
2022/10/07 01:41:03;;;;;;;3.47;0.60;;;11.30;99.90;;;;;;6194262;23;20023;-91
2022/10/07 01:43:30;;;;;;;1.48;0.50;;;11.30;99.90;;;;;;6194665;23;20020;-92
2022/10/07 01:45:56;;;;;;;5.20;0.80;;;11.20;99.90;;;;;;6194069;23;20023;-89
2022/10/07 01:48:22;;;;;;;7.07;0.90;;;11.30;99.90;;;;;;6219478;23;20016;-91
2022/10/07 01:50:49;;;;;;;2.40;0.60;;;11.20;99.90;;;;;;6194931;23;20051;-91
2022/10/07 01:53:23;;;;;;;4.07;0.95;;;11.20;99.90;;;;;;6195000;23;20338;-91
2022/10/07 01:56:26;;;;;;;2.33;0.65;;;11.20;99.90;;;;;;6194051;23;20054;-92
2022/10/07 01:59:15;;;;;;;5.80;1.00;;;11.10;99.90;;;;;;6194064;23;20020;-93
2022/10/07 02:02:02;;;;;;;2.22;0.88;;;11.10;99.90;;;;;;6194372;23;20020;-89
2022/10/07 02:04:58;;;;;;;3.00;0.70;;;11.10;99.90;;;;;;6194278;23;20020;-89
2022/10/07 02:07:43;;;;;;;3.55;0.70;;;11.00;99.90;;;;;;6194470;23;20251;-90
2022/10/07 02:10:20;;;;;;;5.47;1.05;;;11.00;99.90;;;;;;6207787;22;20015;-93
2022/10/07 02:13:03;;;;;;;2.22;0.65;;;11.00;99.90;;;;;;6224824;22;20099;-88
2022/10/07 02:15:52;;;;;;;3.58;0.88;;;11.00;99.90;;;;;;6249912;22;20134;-90
2022/10/07 02:18:19;;;;;;;4.00;0.73;;;11.00;99.90;;;;;;6224248;22;20118;-91
2022/10/07 02:20:49;;;;;;;5.20;1.10;;;11.00;99.90;;;;;;6224553;22;20051;-90
2022/10/07 02:23:19;;;;;;;5.10;1.00;;;10.90;99.90;;;;;;6224187;22;20011;-93
2022/10/07 02:25:47;;;;;;;4.05;1.02;;;10.90;99.90;;;;;;6224051;22;20016;-89
2022/10/07 02:28:17;;;;;;;5.18;0.95;;;10.90;99.90;;;;;;6249534;22;20015;-91
2022/10/07 02:30:47;;;;;;;1.92;0.90;;;10.90;99.90;;;;;;6224316;22;20045;-90
2022/10/07 02:33:14;;;;;;;3.55;1.00;;;10.90;99.90;;;;;;6224106;22;20342;-89
2022/10/07 02:36:01;;;;;;;3.58;0.82;;;10.90;99.90;;;;;;6224766;22;20022;-90
2022/10/07 02:38:28;;;;;;;3.85;0.80;;;10.90;99.90;;;;;;6224528;22;20012;-93
2022/10/07 02:41:07;;;;;;;4.47;0.95;;;10.90;99.90;;;;;;6249793;22;20065;-89
2022/10/07 02:44:05;;;;;;;5.57;0.98;;;11.00;99.90;;;;;;6224687;22;20050;-91
2022/10/07 02:46:37;;;;;;;4.32;1.00;;;10.90;99.90;;;;;;6183494;22;20019;-94
2022/10/07 02:49:10;;;;;;;3.55;0.80;;;10.90;99.90;;;;;;6224706;22;20020;-92
2022/10/07 02:51:57;;;;;;;2.45;0.80;;;10.90;99.90;;;;;;6224806;22;20065;-96
2022/10/07 02:54:36;;;;;;;5.13;0.90;;;10.90;99.90;;;;;;6226227;22;20091;-91
2022/10/07 02:57:06;;;;;;;3.80;1.00;;;10.80;99.90;;;;;;6226615;22;20091;-90
2022/10/07 02:59:52;;;;;;;3.53;0.90;;;10.80;99.90;;;;;;6226750;22;20016;-91
2022/10/07 03:02:41;;;;;;;2.63;0.90;;;10.80;99.90;;;;;;6226555;22;20326;-89
2022/10/07 03:05:08;;;;;;;2.90;0.90;;;10.80;99.90;;;;;;6226690;22;20016;-90
2022/10/07 03:07:35;;;;;;;2.63;0.70;;;10.80;99.90;;;;;;6226438;22;20019;-92
2022/10/07 03:10:02;;;;;;;3.58;0.90;;;10.70;99.90;;;;;;6226162;22;20016;-87
2022/10/07 03:12:28;;;;;;;5.72;0.80;;;10.70;99.90;;;;;;6251257;22;20019;-92
2022/10/07 03:14:54;;;;;;;2.70;0.87;;;10.70;99.90;;;;;;6201387;22;20046;-95
2022/10/07 03:17:19;;;;;;;2.13;0.70;;;10.70;99.90;;;;;;6226487;22;20028;-89
2022/10/07 03:19:45;;;;;;;2.40;0.73;;;10.70;99.90;;;;;;6251208;22;20047;-91
2022/10/07 03:22:11;;;;;;;4.03;0.80;;;10.70;99.90;;;;;;6226473;22;20069;-89
2022/10/07 03:24:37;;;;;;;2.77;1.00;;;10.70;99.90;;;;;;6226388;22;20020;-93
2022/10/07 03:27:06;;;;;;;3.05;0.90;;;10.70;99.90;;;;;;6226257;22;20044;-88
2022/10/07 03:29:33;;;;;;;3.03;0.90;;;10.60;99.90;;;;;;6226827;22;20054;-88
2022/10/07 03:32:00;;;;;;;4.25;1.30;;;10.60;99.90;;;;;;6247540;22;20077;-87
2022/10/07 03:34:26;;;;;;;4.03;1.00;;;10.60;99.90;;;;;;6243636;22;20015;-90
2022/10/07 03:36:53;;;;;;;4.70;1.13;;;10.60;99.90;;;;;;6225953;22;20099;-92
2022/10/07 03:39:18;;;;;;;2.92;0.93;;;10.60;99.90;;;;;;6225927;22;20091;-93
2022/10/07 03:41:47;;;;;;;3.93;1.10;;;10.60;99.90;;;;;;6225903;22;20503;-89
2022/10/07 03:44:13;;;;;;;4.63;1.02;;;10.60;99.90;;;;;;6250991;22;20023;-89
2022/10/07 03:46:39;;;;;;;3.50;1.10;;;10.50;99.90;;;;;;6225937;22;20019;-91
2022/10/07 03:49:05;;;;;;;6.38;1.17;;;10.50;99.90;;;;;;6225640;22;20475;-90
2022/10/07 03:51:31;;;;;;;4.27;1.17;;;10.50;99.90;;;;;;6200944;22;20091;-92
2022/10/07 03:53:58;;;;;;;4.50;1.10;;;10.50;99.90;;;;;;6225919;22;20022;-89
2022/10/07 03:56:24;;;;;;;2.35;0.90;;;10.50;99.90;;;;;;6226055;22;20011;-93
2022/10/07 03:58:51;;;;;;;4.07;1.20;;;10.50;99.90;;;;;;6225878;22;20507;-89
2022/10/07 04:01:17;;;;;;;6.55;1.00;;;10.50;99.90;;;;;;6225829;22;20016;-93
2022/10/07 04:03:43;;;;;;;6.05;1.30;;;10.50;99.90;;;;;;6225984;22;20012;-89
2022/10/07 04:06:09;;;;;;;4.85;1.20;;;10.50;99.90;;;;;;6244329;22;20043;-89
2022/10/07 04:08:35;;;;;;;1.93;1.10;;;10.50;99.90;;;;;;6244638;22;20023;-90
2022/10/07 04:11:02;;;;;;;3.03;1.10;;;10.50;99.90;;;;;;6226376;22;20023;-93
2022/10/07 04:13:28;;;;;;;3.65;1.00;;;10.40;99.90;;;;;;6225626;22;20020;-88
2022/10/07 04:15:54;;;;;;;3.10;1.00;;;10.40;99.90;;;;;;6225201;22;20448;-89
2022/10/07 04:18:21;;;;;;;3.80;0.93;;;10.40;99.90;;;;;;6250825;22;20019;-91
2022/10/07 04:20:47;;;;;;;4.82;0.98;;;10.40;99.90;;;;;;6250906;22;20031;-87
2022/10/07 04:23:13;;;;;;;5.53;1.15;;;10.40;99.90;;;;;;6225497;22;20007;-90
2022/10/07 04:25:44;;;;;;;5.15;1.33;;;10.40;99.90;;;;;;6225716;22;20023;-92
2022/10/07 04:28:18;;;;;;;3.70;1.00;;;10.40;99.90;;;;;;6225591;22;20015;-92
2022/10/07 04:30:49;;;;;;;6.55;1.05;;;10.40;99.90;;;;;;6225850;22;20019;-91
2022/10/07 04:33:16;;;;;;;5.38;1.10;;;10.40;99.90;;;;;;6225566;22;20052;-90
2022/10/07 04:35:43;;;;;;;2.22;1.15;;;10.40;99.90;;;;;;6225849;22;20026;-89
2022/10/07 04:38:14;;;;;;;4.07;1.20;;;10.40;99.90;;;;;;6225515;22;20012;-92
2022/10/07 04:40:42;;;;;;;4.90;1.23;;;10.40;99.90;;;;;;6201071;22;20122;-94
2022/10/07 04:43:18;;;;;;;3.38;0.98;;;10.30;99.90;;;;;;6225614;22;20448;-90
2022/10/07 04:45:46;;;;;;;3.10;1.15;;;10.30;99.90;;;;;;6225185;22;20012;-91
2022/10/07 04:48:12;;;;;;;3.58;1.30;;;10.30;99.90;;;;;;6225254;22;20433;-88
2022/10/07 04:50:37;;;;;;;7.50;1.52;;;10.30;99.90;;;;;;6225880;22;20050;-93
2022/10/07 04:53:05;;;;;;;6.30;1.30;;;10.30;99.90;;;;;;6225957;22;20310;-96
2022/10/07 04:55:36;;;;;;;4.88;1.33;;;10.30;99.90;;;;;;6225636;22;20019;-91
2022/10/07 04:58:03;;;;;;;7.57;1.70;;;10.30;99.90;;;;;;6201301;22;20098;-96
2022/10/07 05:00:29;;;;;;;4.22;1.35;;;10.30;99.90;;;;;;6226167;22;20114;-92
2022/10/07 05:02:54;;;;;;;5.43;1.27;;;10.30;99.90;;;;;;6225903;22;20117;-95
2022/10/07 05:05:20;;;;;;;5.63;1.60;;;10.30;99.90;;;;;;6224983;22;20015;-89
2022/10/07 05:07:53;;;;;;;3.50;1.13;;;10.30;99.90;;;;;;6225940;22;20031;-96
2022/10/07 05:10:20;;;;;;;5.00;1.23;;;10.30;99.90;;;;;;6251855;22;20020;-91
2022/10/07 05:12:47;;;;;;;3.67;1.17;;;10.20;99.90;;;;;;6226205;22;20125;-96
2022/10/07 05:15:12;;;;;;;;;;;10.20;99.90;;;;;;6225786;22;20012;-91
2022/10/07 05:17:41;;;;;;;4.18;1.10;;;10.20;99.90;;;;;;6248392;22;19915;-94
2022/10/07 05:20:11;;;;;;;5.35;0.95;;;10.20;99.90;;;;;;6249244;22;20018;-89
2022/10/07 05:22:38;;;;;;;3.25;1.20;;;10.20;99.90;;;;;;6225119;22;20058;-90
2022/10/07 05:25:04;;;;;;;5.93;1.33;;;10.20;99.90;;;;;;6225630;22;20012;-90
2022/10/07 05:27:31;;;;;;;5.18;1.33;;;10.30;99.90;;;;;;6199626;22;20084;-95
2022/10/07 05:30:01;;;;;;;5.18;1.30;;;10.20;99.90;;;;;;6223916;22;20090;-89
2022/10/07 05:32:26;;;;;;;4.03;1.30;;;10.20;99.90;;;;;;6251054;22;20086;-94
2022/10/07 05:34:52;;;;;;;4.10;1.20;;;10.20;99.90;;;;;;6227132;22;20016;-90
2022/10/07 05:37:18;;;;;;;5.77;1.67;;;10.20;99.90;;;;;;6225036;22;20081;-91
2022/10/07 05:39:44;;;;;;;6.33;1.53;;;10.20;99.90;;;;;;6224678;22;20323;-91
2022/10/07 05:42:12;;;;;;;7.03;1.43;;;10.20;99.90;;;;;;6225234;22;20051;-95
2022/10/07 05:44:38;;;;;;;5.45;1.60;;;10.20;99.90;;;;;;6226056;22;20031;-92
2022/10/07 05:47:04;;;;;;;6.53;1.40;;;10.20;99.90;;;;;;6225404;22;20515;-96
2022/10/07 05:49:30;;;;;;;6.40;1.85;;;10.20;99.90;;;;;;6226176;22;20019;-93
2022/10/07 05:51:56;;;;;;;4.83;1.00;;;10.20;99.90;;;;;;6201312;22;20069;-91
2022/10/07 05:54:25;;;;;;;2.87;1.17;;;10.20;99.90;;;;;;6225418;22;20274;-94
2022/10/07 05:56:53;;;;;;;4.00;1.35;;;10.20;99.90;;;;;;6203052;22;20354;-90
2022/10/07 05:59:19;;;;;;;2.55;1.23;;;10.10;99.90;;;;;;6201404;22;20012;-92
2022/10/07 06:01:45;;;;;;;2.87;1.20;;;10.20;99.90;;;;;;6223084;22;20015;-91
2022/10/07 06:04:12;;;;;;;3.47;1.10;;;10.20;99.90;;;;;;6222918;22;20428;-93
2022/10/07 06:06:38;;;;;;;5.25;1.75;;;10.20;99.90;;;;;;6223710;22;20023;-95
2022/10/07 06:14:33;;;;;;;4.03;1.10;;;10.20;99.90;;;;;;6257157;22;20016;-90
2022/10/07 06:16:59;;;;;;;5.90;1.53;;;10.20;99.90;;;;;;6199524;22;20062;-91
2022/10/07 06:19:25;;;;;;;4.13;1.40;;;10.20;99.90;;;;;;6224500;22;20012;-93
2022/10/07 06:21:51;;;;;;;4.75;1.63;;;10.30;99.90;;;;;;6276345;22;20047;-89
2022/10/07 06:24:17;;;;;;;8.93;1.60;;;10.30;99.90;;;;;;6249687;22;20011;-90
2022/10/07 06:26:43;;;;;;;5.37;1.63;;;10.30;99.90;;;;;;6224247;22;20047;-90
2022/10/07 06:29:09;;;;;;;4.93;1.40;;;10.30;99.90;;;;;;6200764;22;20042;-89
2022/10/07 06:31:37;;;;;;;5.40;1.67;;;10.30;99.90;;;;;;6226761;22;20027;-92
2022/10/07 06:34:03;;;;;;;8.52;1.33;;;10.30;99.90;;;;;;6226777;22;20022;-90
2022/10/07 06:36:28;;;;;;;4.57;1.40;;;10.40;99.90;;;;;;6201754;22;20016;-93
2022/10/07 06:38:54;;;;;;;3.97;1.67;;;10.40;99.90;;;;;;6227264;22;20011;-93
2022/10/07 06:41:40;;;;;;;4.75;1.20;;;10.40;99.90;;;;;;6225820;22;20020;-93
2022/10/07 06:44:06;;;;;;;7.30;1.30;;;10.50;99.90;;;;;;6225113;22;20445;-94
2022/10/07 06:46:32;;;;;;;5.60;1.60;;;10.50;99.90;;;;;;6226140;22;20026;-90
2022/10/07 06:48:57;;;;;;;7.50;2.17;;;10.60;99.90;;;;;;6225516;22;20012;-96
2022/10/07 06:51:23;;;;;;;5.50;1.30;;;10.60;99.90;;;;;;6226936;22;20016;-89
2022/10/07 06:53:53;;;;;;;4.20;1.27;;;10.60;99.90;;;;;;6226883;22;20023;-90
2022/10/07 07:00:36;;;;;;;4.97;1.77;;;10.70;99.90;;;;;;6279938;22;20050;-96
2022/10/07 07:03:02;;;;;;;4.13;1.50;;;10.80;99.90;;;;;;6225649;22;20020;-90
2022/10/07 07:05:55;;;;;;;6.70;2.05;;;10.80;99.90;;;;;;6225974;22;20073;-90
2022/10/07 07:08:27;;;;;;;4.10;1.30;;;10.80;99.90;;;;;;6224707;22;20464;-92
2022/10/07 07:10:54;;;;;;;3.20;1.40;;;10.80;99.90;;;;;;6203840;23;20022;-92
2022/10/07 07:13:21;;;;;;;6.25;1.50;;;10.90;99.90;;;;;;6196801;23;20167;-91
2022/10/07 07:15:58;;;;;;;5.55;1.85;;;10.90;99.90;;;;;;6195008;23;20442;-91
2022/10/07 07:18:23;;;;;;;5.53;1.92;;;11.00;99.90;;;;;;6196101;23;20493;-92
2022/10/07 07:20:50;;;;;;;3.23;1.27;;;11.00;99.90;;;;;;6196420;23;20016;-90
2022/10/07 07:23:15;;;;;;;4.95;1.80;;;11.00;99.90;;;;;;6196425;23;20023;-92
2022/10/07 07:25:44;;;;;;;6.67;1.60;;;11.10;99.90;;;;;;6195550;23;20012;-90
2022/10/07 07:28:14;;;;;;;6.82;1.35;;;11.10;99.90;;;;;;6196885;23;20247;-90
2022/10/07 07:30:43;;;;;;;7.45;1.65;;;11.10;99.90;;;;;;6221594;23;20023;-89
2022/10/07 07:43:30;;;;;;;4.20;1.40;;;11.30;99.90;;;;;;6255405;22;20035;-92
2022/10/07 07:59:22;;;;;;;7.35;1.40;;;11.60;99.90;;;;;;6278421;22;20341;-91
2022/10/07 08:20:38;;;;;;;4.90;1.42;;;12.00;99.90;;;;;;6271616;22;20088;-92
2022/10/07 08:25:40;;;;;;;5.63;1.13;;;12.20;99.90;;;;;;6310074;22;20053;-93
2022/10/07 08:33:17;;;;;;;5.93;1.20;;;12.30;99.90;;;;;;6278613;22;20027;-93
2022/10/07 08:36:46;;;;;;;4.13;1.23;;;12.40;99.90;;;;;;6226617;22;20074;-94
2022/10/07 08:39:18;;;;;;;3.50;1.00;;;12.50;99.90;;;;;;6107174;23;20060;-95
2022/10/07 08:52:33;;;;;;;3.65;0.80;;;12.80;99.90;;;;;;6289026;22;20012;-90
2022/10/07 08:55:08;;;;;;;4.45;1.00;;;12.90;99.90;;;;;;6221002;23;20020;-94
2022/10/07 09:05:25;;;;;;;5.63;1.23;;;13.10;99.90;;;;;;6242628;22;20020;-91
2022/10/07 09:08:08;;;;;;;8.18;1.25;;;13.20;99.90;;;;;;6197748;23;20402;-94
2022/10/07 09:10:42;;;;;;;4.80;1.30;;;13.30;99.90;;;;;;6176367;23;20016;-93
2022/10/07 09:13:26;;;;;;;5.80;0.95;;;13.40;99.90;;;;;;6196603;23;20099;-91
2022/10/07 09:16:08;;;;;;;4.82;0.90;;;13.40;99.90;;;;;;6200192;23;20012;-94
2022/10/07 09:24:29;;;;;;;3.40;1.05;;;13.60;99.90;;;;;;6254739;22;20020;-93
2022/10/07 09:26:59;;;;;;;5.28;0.90;;;13.70;99.90;;;;;;6189637;22;20023;-95
2022/10/07 09:29:31;;;;;;;5.45;1.10;;;13.70;99.90;;;;;;6226883;22;20097;-94
2022/10/07 09:31:57;;;;;;;4.82;1.00;;;13.80;99.90;;;;;;6227382;22;20024;-93
2022/10/07 09:34:37;;;;;;;4.78;0.80;;;13.80;99.90;;;;;;6226822;22;20016;-96
2022/10/07 10:06:08;;;;;;;4.93;1.00;;;14.80;99.90;;;;;;6277924;22;20050;-92
2022/10/07 10:13:48;;;;;;;2.75;0.63;;;15.00;99.90;;;;;;6277668;22;20042;-94
2022/10/07 10:16:29;;;;;;;4.25;1.10;;;15.10;99.90;;;;;;6225650;22;20457;-93
2022/10/07 10:19:03;;;;;;;9.07;1.00;;;15.10;99.90;;;;;;6227822;22;20043;-92
2022/10/07 10:21:35;;;;;;;4.18;0.85;;;15.20;99.90;;;;;;6225682;22;20015;-93
2022/10/07 10:24:05;;;;;;;2.90;0.65;;;15.30;99.90;;;;;;6224504;22;20444;-95
2022/10/07 10:27:08;;;;;;;4.40;0.70;;;15.40;99.90;;;;;;6226379;22;20012;-91
2022/10/07 10:30:01;;;;;;;4.15;0.85;;;15.60;99.90;;;;;;6165795;22;20349;-94
2022/10/07 10:33:05;;;;;;;5.70;0.93;;;15.60;99.90;;;;;;6226651;22;20484;-95
2022/10/07 10:43:36;;;;;;;3.72;0.88;;;15.90;99.90;;;;;;6268224;22;20020;-94
2022/10/07 10:51:24;;;;;;;2.03;0.50;;;16.10;99.90;;;;;;6248891;22;20028;-93
2022/10/07 10:54:16;;;;;;;5.03;0.77;;;16.20;99.90;;;;;;6227854;22;20020;-93
2022/10/07 10:57:19;;;;;;;3.15;0.85;;;16.30;99.90;;;;;;6222455;22;20028;-89
2022/10/07 11:00:06;;;;;;;2.55;0.63;;;16.30;99.90;;;;;;6243436;22;20049;-92
2022/10/07 11:49:56;;;;;;;5.30;0.77;;;17.10;99.90;;;;;;6280070;22;20019;-94
2022/10/07 11:52:31;;;;;;;4.82;0.50;;;17.20;99.90;;;;;;6227221;22;20019;-92
2022/10/07 11:55:03;;;;;;;3.55;0.45;;;17.10;99.90;;;;;;6227305;22;20074;-92
2022/10/07 11:57:33;;;;;;;2.97;0.80;;;17.10;99.90;;;;;;6227776;22;20102;-93
2022/10/07 12:00:04;;;;;;;2.50;0.55;;;17.00;99.90;;;;;;6228441;22;20015;-92
2022/10/07 12:02:30;;;;;;;4.90;0.55;;;17.00;99.90;;;;;;6230121;22;20058;-91
2022/10/07 12:05:00;;;;;;;4.38;0.73;;;16.90;99.90;;;;;;6228864;22;20020;-93
2022/10/07 12:24:14;;;;;;;1.83;0.47;;;16.40;99.90;;;;;;6310390;22;20019;-95
2022/10/07 12:26:43;;;;;;;2.97;0.77;;;16.40;99.90;;;;;;6231889;22;20042;-93
2022/10/07 12:29:32;;;;;;;0.85;0.40;;;16.40;99.90;;;;;;6257948;22;20063;-95
2022/10/07 12:31:59;;;;;;;4.55;0.75;;;16.40;99.90;;;;;;6282608;22;20448;-93
2022/10/07 12:34:42;;;;;;;3.83;0.60;;;16.50;99.90;;;;;;6257543;22;20012;-94
2022/10/07 12:37:39;;;;;;;5.15;0.60;;;16.60;99.90;;;;;;6232047;22;20019;-94
2022/10/07 12:40:16;;;;;;;5.30;0.52;;;16.70;99.90;;;;;;6256431;22;20015;-91
2022/10/07 12:42:49;;;;;;;2.67;0.47;;;16.80;99.90;;;;;;6257413;22;20087;-92
2022/10/07 12:45:17;;;;;;;4.10;0.68;;;16.80;99.90;;;;;;6257245;22;20015;-96
2022/10/07 12:47:44;;;;;;;4.70;0.60;;;16.90;99.90;;;;;;6232114;22;20019;-93
2022/10/07 12:50:15;;;;;;;2.03;0.77;;;16.90;99.90;;;;;;6255530;22;20011;-93
2022/10/07 12:52:42;;;;;;;4.53;0.73;;;17.00;99.90;;;;;;6254388;22;20340;-94
2022/10/07 12:55:19;;;;;;;2.03;0.43;;;17.00;99.90;;;;;;6256154;22;20558;-92
2022/10/07 12:57:53;;;;;;;3.20;0.60;;;17.00;99.90;;;;;;6256232;22;20349;-92
2022/10/07 13:00:23;;;;;;;3.22;0.60;;;17.00;99.90;;;;;;6256847;22;20356;-92
2022/10/07 13:03:07;;;;;;;3.60;0.50;;;16.90;99.90;;;;;;6264925;22;20063;-89
2022/10/07 13:05:39;;;;;;;3.70;0.50;;;16.90;99.90;;;;;;6274164;22;20019;-94
2022/10/07 13:08:26;;;;;;;2.05;0.68;;;16.90;99.90;;;;;;6256985;22;20022;-94
2022/10/07 13:11:07;;;;;;;4.20;0.65;;;16.80;99.90;;;;;;6256114;22;20046;-93
2022/10/07 13:13:58;;;;;;;3.70;0.60;;;16.80;99.90;;;;;;6256009;22;20015;-93
2022/10/07 13:25:06;;;;;;;3.45;0.50;;;16.70;99.90;;;;;;6303393;22;20080;-93
2022/10/07 13:27:36;;;;;;;4.10;0.57;;;16.70;99.90;;;;;;6256382;22;20016;-89
2022/10/07 13:30:05;;;;;;;3.80;0.55;;;16.70;99.90;;;;;;6230341;22;20076;-93
2022/10/07 13:32:36;;;;;;;4.30;0.60;;;16.70;99.90;;;;;;6253581;22;20011;-92
2022/10/07 13:35:31;;;;;;;3.53;0.68;;;16.70;99.90;;;;;;6255217;22;20011;-90
2022/10/07 13:37:56;;;;;;;5.80;0.65;;;16.60;99.90;;;;;;6264344;22;20472;-89
2022/10/07 13:45:43;;;;;;;2.80;0.40;;;16.60;99.90;;;;;;6277544;22;20019;-93
2022/10/07 13:48:34;;;;;;;2.80;0.87;;;16.60;99.90;;;;;;6200258;22;20020;-95
2022/10/07 13:51:04;;;;;;;2.10;0.50;;;16.60;99.90;;;;;;6224018;22;20256;-95
2022/10/07 13:53:35;;;;;;;1.95;0.50;;;16.60;99.90;;;;;;6224383;22;20342;-93
2022/10/07 13:56:22;;;;;;;5.00;1.27;;;16.60;99.90;;;;;;6224952;22;20055;-93
2022/10/07 13:58:48;;;;;;;3.17;0.57;;;16.60;99.90;;;;;;6225315;22;20370;-93
2022/10/07 14:01:14;;;;;;;2.53;0.80;;;16.60;99.90;;;;;;6225380;22;20016;-90
2022/10/07 14:04:19;;;;;;;4.13;0.88;;;16.60;99.90;;;;;;6225446;22;20081;-93
2022/10/07 14:06:54;;;;;;;5.45;0.82;;;16.60;99.90;;;;;;6127473;23;20052;-92
2022/10/07 14:10:10;;;;;;;;;;;;;;;;;;;;;
2022/10/07 14:13:39;;;;;;;3.90;0.82;;;16.50;99.90;;;;;;6274378;22;20069;-93
2022/10/07 14:17:06;;;;;;;3.97;0.75;;;16.50;99.90;;;;;;6218946;22;20015;-93
2022/10/07 14:27:38;;;;;;;4.40;0.75;;;16.40;99.90;;;;;;6275984;22;20028;-94
2022/10/07 14:35:16;;;;;;;4.05;1.42;;;16.40;99.90;;;;;;6225580;22;20016;-94
2022/10/07 14:36:34;;;;;;;4.43;0.82;;;16.50;99.90;;;;;;6280966;22;20027;-94
2022/10/07 14:39:22;;;;;;;5.63;1.35;;;16.50;99.90;;;;;;6205836;22;20094;-92
2022/10/07 14:41:48;;;;;;;2.38;1.00;;;16.50;99.90;;;;;;6256221;22;20057;-93
2022/10/07 14:44:15;;;;;;;3.30;1.10;;;16.50;99.90;;;;;;6256167;22;20019;-94
2022/10/07 14:46:41;;;;;;;6.38;1.35;;;16.50;99.90;;;;;;6255409;22;20019;-92
2022/10/07 14:49:08;;;;;;;6.93;1.10;;;16.50;99.90;;;;;;6256499;22;20119;-94
2022/10/07 14:51:34;;;;;;;1.88;0.57;;;16.50;99.90;;;;;;6257905;22;20038;-93
2022/10/07 14:54:04;;;;;;;4.15;0.60;;;16.60;99.90;;;;;;6258165;22;20068;-93
2022/10/07 14:56:32;;;;;;;3.30;0.50;;;16.60;99.90;;;;;;6258133;22;20015;-93
2022/10/07 14:59:19;;;;;;;1.90;0.50;;;16.60;99.90;;;;;;6258170;22;20045;-94
2022/10/07 15:01:45;;;;;;;2.45;1.08;;;16.50;99.90;;;;;;6257493;22;20022;-95
2022/10/07 15:04:11;;;;;;;3.00;0.68;;;16.50;99.90;;;;;;6257878;22;20015;-92
2022/10/07 15:06:37;;;;;;;1.83;0.63;;;16.50;99.90;;;;;;6233436;22;20022;-94
2022/10/07 15:09:03;;;;;;;4.22;1.23;;;16.40;99.90;;;;;;6257519;22;20011;-95
2022/10/07 15:11:29;;;;;;;7.25;3.10;;;16.40;99.90;;;;;;6257408;22;20054;-92
2022/10/07 15:13:54;;;;;;;3.53;0.70;;;16.40;99.90;;;;;;6257399;22;20069;-92
2022/10/07 15:16:24;;;;;;;2.20;0.60;;;16.30;99.90;;;;;;6284008;22;20101;-91
2022/10/07 15:18:50;;;;;;;2.25;0.80;;;16.30;99.90;;;;;;6257252;22;20077;-94
2022/10/07 15:21:19;;;;;;;2.28;0.60;;;16.20;99.90;;;;;;6258220;22;20038;-94
2022/10/07 15:23:52;;;;;;;3.20;0.77;;;16.20;99.90;;;;;;6258379;22;20016;-94
2022/10/07 15:50:17;;;;;;;4.53;1.00;;;16.00;99.90;;;;;;6310554;22;20429;-91
2022/10/07 15:52:45;;;;;;;2.55;0.60;;;16.00;99.90;;;;;;6256648;22;20023;-90
2022/10/07 16:18:44;;;;;;;17.45;7.85;;;15.90;99.90;;;;;;6309084;22;20030;-91
2022/10/07 16:21:22;;;;;;;16.08;11.65;;;15.90;99.90;;;;;;6257111;22;20407;-94
2022/10/07 16:23:53;;;;;;;15.05;11.15;;;15.80;99.90;;;;;;6259632;22;20397;-94
2022/10/07 17:07:36;;;;;;;3.63;0.80;;;15.60;99.90;;;;;;6329943;22;20009;-91
2022/10/07 17:10:01;;;;;;;2.92;1.15;;;15.60;99.90;;;;;;6281571;22;20019;-90
2022/10/07 17:12:28;;;;;;;4.40;0.98;;;15.60;99.90;;;;;;6260367;22;20026;-88
2022/10/07 17:14:53;;;;;;;2.90;0.80;;;15.50;99.90;;;;;;6231001;22;20042;-90
2022/10/07 17:17:19;;;;;;;2.40;0.65;;;15.50;99.90;;;;;;6256006;22;20049;-88
2022/10/07 17:19:45;;;;;;;3.42;0.80;;;15.50;99.90;;;;;;6255892;22;20019;-88
2022/10/07 17:22:11;;;;;;;5.30;1.25;;;15.50;99.90;;;;;;6230535;22;20015;-89
2022/10/07 17:24:36;;;;;;;2.10;0.65;;;15.50;99.90;;;;;;6230433;22;20015;-92
2022/10/07 17:27:02;;;;;;;3.58;0.73;;;15.50;99.90;;;;;;6230566;22;20015;-89
2022/10/07 17:29:29;;;;;;;5.55;1.02;;;15.50;99.90;;;;;;6255736;22;20034;-89
2022/10/07 17:31:55;;;;;;;4.55;1.77;;;15.50;99.90;;;;;;6255253;22;20023;-89
2022/10/07 17:34:21;;;;;;;4.50;3.05;;;15.50;99.90;;;;;;6255617;22;20011;-92
2022/10/07 17:36:49;;;;;;;4.68;1.23;;;15.40;99.90;;;;;;6255607;22;20038;-89
2022/10/07 17:39:16;;;;;;;3.17;0.80;;;15.40;99.90;;;;;;6255714;22;20047;-91
2022/10/07 17:41:41;;;;;;;3.55;1.58;;;15.40;99.90;;;;;;6255426;22;20038;-90
2022/10/07 17:44:20;;;;;;;3.33;1.48;;;15.40;99.90;;;;;;6229684;22;20018;-90
2022/10/07 17:46:49;;;;;;;3.22;1.20;;;15.40;99.90;;;;;;6253526;22;20019;-93
2022/10/07 17:49:14;;;;;;;1.88;0.70;;;15.40;99.90;;;;;;6278799;22;20129;-89
2022/10/07 17:51:41;;;;;;;3.08;0.40;;;15.40;99.90;;;;;;6252835;22;20023;-91
2022/10/07 17:54:09;;;;;;;2.65;0.50;;;15.30;99.90;;;;;;6253446;22;20015;-89
2022/10/07 17:56:35;;;;;;;3.78;0.75;;;15.30;99.90;;;;;;6253309;22;20030;-90
2022/10/07 17:59:02;;;;;;;1.58;0.50;;;15.30;99.90;;;;;;6253133;22;20016;-89
2022/10/07 18:01:29;;;;;;;;;;;15.30;99.90;;;;;;6231298;22;20015;-90
2022/10/07 18:03:57;;;;;;;2.72;0.90;;;15.30;99.90;;;;;;6256039;22;19914;-89
2022/10/07 18:06:29;;;;;;;4.82;0.80;;;15.30;99.90;;;;;;6255396;22;20015;-92
2022/10/07 18:08:57;;;;;;;4.60;0.60;;;15.20;99.90;;;;;;6258561;22;20015;-90
2022/10/07 18:15:18;;;;;;;5.45;0.68;;;15.20;99.90;;;;;;6259308;22;20030;-89
2022/10/07 18:16:54;;;;;;;3.42;0.70;;;15.20;99.90;;;;;;6283600;22;20019;-93
2022/10/07 18:19:25;;;;;;;3.35;0.60;;;15.10;99.90;;;;;;6231514;22;20464;-91
2022/10/07 18:21:51;;;;;;;1.83;0.90;;;15.10;99.90;;;;;;6255308;22;20057;-91
2022/10/07 18:24:17;;;;;;;5.13;0.80;;;15.10;99.90;;;;;;6254814;22;20011;-91
2022/10/07 18:26:43;;;;;;;2.90;0.60;;;15.10;99.90;;;;;;6255406;22;20016;-91